Terminal Aerodrome Forecast
Issued by NWS

Home | Current Version | Previous Version | Text Only | Print | Product List | Glossary Off
Versions: 1 2 3 4 5 6 7 8 9 10 11 12 13 14 15 16 17 18 19 20 21 22 23 24

000
FTUS43 KABR 200337 AAA
TAFMBG
TAF AMD
KMBG 200337Z 2004/2024 00000KT 1/4SM FZFG VV002
     FM201400 14005KT 1/2SM FZFG VV002
     FM201600 15005KT 1 1/2SM BR OVC003
     FM201800 14005KT 6SM BR BKN006
     FM202100 15004KT P6SM FEW010
     FM202300 17005KT P6SM BKN015=

USA.gov is the U.S. government's official web portal to all federal, state and local government web resources and services.